createdAt,value
2018-07-05T00:01:32.693Z,22.79
2018-07-05T00:06:52.958Z,22.77
2018-07-05T00:12:13.180Z,22.73
2018-07-05T00:17:33.331Z,22.70
2018-07-05T00:22:53.417Z,22.55
2018-07-05T00:28:13.556Z,22.42
2018-07-05T00:33:33.827Z,22.32
2018-07-05T00:38:54.061Z,22.08
2018-07-05T00:44:14.458Z,21.95
2018-07-05T00:49:34.645Z,21.82
2018-07-05T00:54:55.142Z,21.83
2018-07-05T01:00:15.466Z,21.68
2018-07-05T01:05:35.862Z,21.68
2018-07-05T01:10:56.295Z,21.69
2018-07-05T01:16:16.485Z,21.55
2018-07-05T01:21:37.025Z,21.62
2018-07-05T01:26:57.448Z,21.78
2018-07-05T01:32:17.654Z,21.59
2018-07-05T01:37:37.925Z,21.36
2018-07-05T01:42:58.213Z,21.21
2018-07-05T01:48:19.065Z,21.19
2018-07-05T01:53:39.405Z,21.26
2018-07-05T01:58:59.824Z,21.28
2018-07-05T02:04:19.998Z,21.13
2018-07-05T02:09:40.272Z,21.23
2018-07-05T02:15:00.473Z,21.14
2018-07-05T02:20:20.675Z,21.20
2018-07-05T02:25:40.885Z,21.22
2018-07-05T02:31:01.289Z,21.12
2018-07-05T02:36:21.656Z,21.10
2018-07-05T02:41:41.753Z,21.03
2018-07-05T02:47:01.938Z,20.89
2018-07-05T02:52:22.145Z,20.59
2018-07-05T02:57:42.549Z,20.39
2018-07-05T03:03:02.882Z,20.17
2018-07-05T03:08:23.249Z,20.24
2018-07-05T03:13:43.455Z,20.07
2018-07-05T03:19:03.762Z,20.13
2018-07-05T03:24:24.174Z,20.30
2018-07-05T03:29:44.537Z,20.35
2018-07-05T03:35:04.897Z,20.43
2018-07-05T03:40:25.089Z,20.54
2018-07-05T03:45:45.385Z,20.54
2018-07-05T03:51:05.480Z,20.65
2018-07-05T03:56:25.624Z,20.98
2018-07-05T04:01:45.958Z,20.97
2018-07-05T04:07:06.216Z,20.76
2018-07-05T04:12:26.785Z,20.66
2018-07-05T04:17:47.229Z,20.75
2018-07-05T04:23:07.564Z,20.87
2018-07-05T04:28:27.740Z,20.84
2018-07-05T04:33:47.880Z,21.00
2018-07-05T04:39:08.120Z,21.08
2018-07-05T04:44:28.519Z,21.36
2018-07-05T04:49:48.809Z,21.30
2018-07-05T04:55:09.662Z,21.21
2018-07-05T05:00:30.629Z,21.32
2018-07-05T05:05:51.313Z,21.42
2018-07-05T05:11:12.380Z,21.48
2018-07-05T05:16:33.180Z,21.49
2018-07-05T05:21:53.682Z,21.73
2018-07-05T05:27:13.949Z,21.72
2018-07-05T05:32:34.057Z,21.86
2018-07-05T05:37:54.368Z,22.03
2018-07-05T05:43:14.705Z,21.78
2018-07-05T05:48:29.113Z,21.78
2018-07-05T05:53:49.089Z,21.97
2018-07-05T05:59:09.357Z,22.04
2018-07-05T06:04:29.706Z,21.98
2018-07-05T06:09:51.466Z,22.18
2018-07-05T06:15:11.813Z,22.61
2018-07-05T06:20:32.055Z,22.67
2018-07-05T06:25:52.222Z,22.93
2018-07-05T06:31:12.428Z,23.13
2018-07-05T06:36:32.573Z,23.44
2018-07-05T06:41:52.817Z,23.97
2018-07-05T06:47:13.161Z,24.10
2018-07-05T06:52:33.458Z,23.82
2018-07-05T06:57:53.926Z,23.75
2018-07-05T07:03:14.416Z,23.70
2018-07-05T07:08:34.574Z,23.56
2018-07-05T07:13:54.834Z,23.85
2018-07-05T07:19:15.269Z,24.04
2018-07-05T07:24:35.452Z,24.24
2018-07-05T07:29:55.605Z,24.26
2018-07-05T07:35:15.940Z,24.49
2018-07-05T07:40:36.213Z,24.47
2018-07-05T07:45:37.799Z,24.87
2018-07-05T07:50:39.272Z,24.99
2018-07-05T07:55:40.756Z,25.19
2018-07-05T08:00:42.240Z,25.35
2018-07-05T08:05:43.741Z,25.48
2018-07-05T08:10:45.217Z,25.56
2018-07-05T08:15:46.717Z,25.97
2018-07-05T08:20:48.311Z,26.11
2018-07-05T08:25:49.781Z,26.20
2018-07-05T08:30:51.285Z,26.76
2018-07-05T08:35:52.785Z,26.34
2018-07-05T08:40:54.282Z,26.24
2018-07-05T08:45:55.760Z,26.15
2018-07-05T08:50:57.701Z,26.30
2018-07-05T08:55:59.792Z,26.50
2018-07-05T09:01:01.264Z,26.74
2018-07-05T09:06:02.741Z,26.76
2018-07-05T09:11:05.061Z,26.68
2018-07-05T09:16:06.625Z,26.86
2018-07-05T09:21:08.109Z,27.28
2018-07-05T09:26:09.601Z,27.56
2018-07-05T09:31:11.114Z,27.72
2018-07-05T09:36:12.590Z,27.79
2018-07-05T09:41:14.065Z,28.09
2018-07-05T09:46:16.001Z,28.29
2018-07-05T09:51:17.481Z,28.40
2018-07-05T09:56:19.010Z,28.56
2018-07-05T10:01:20.496Z,28.49
2018-07-05T10:06:21.993Z,28.26
2018-07-05T10:11:23.469Z,28.40
2018-07-05T10:16:24.960Z,28.87
2018-07-05T10:21:26.456Z,28.86
2018-07-05T10:26:27.928Z,28.82
2018-07-05T10:31:48.132Z,29.21
2018-07-05T10:36:49.622Z,29.20
2018-07-05T10:42:09.798Z,29.19
2018-07-05T10:47:30.085Z,29.01
2018-07-05T10:52:50.304Z,29.00
2018-07-05T10:58:10.383Z,29.42
2018-07-05T11:03:30.504Z,29.52
2018-07-05T11:08:45.056Z,29.30
2018-07-05T11:14:05.233Z,29.60
2018-07-05T11:19:25.684Z,29.55
2018-07-05T11:24:45.876Z,29.49
2018-07-05T11:30:06.744Z,29.46
2018-07-05T11:35:27.269Z,29.40
2018-07-05T11:40:47.674Z,29.28
2018-07-05T11:46:07.981Z,29.41
2018-07-05T11:51:28.385Z,29.60
2018-07-05T11:56:48.810Z,29.74
2018-07-05T12:02:09.119Z,30.16
2018-07-05T12:07:29.445Z,30.21
2018-07-05T12:12:49.908Z,30.19
2018-07-05T12:18:10.306Z,30.29
2018-07-05T12:23:30.444Z,30.49
2018-07-05T12:28:50.533Z,30.85
2018-07-05T12:34:11.121Z,30.79
2018-07-05T12:39:31.597Z,30.80
2018-07-05T12:44:51.858Z,30.92
2018-07-05T12:50:12.127Z,31.23
2018-07-05T12:55:32.605Z,31.47
2018-07-05T13:00:52.872Z,31.17
2018-07-05T13:06:13.049Z,31.09
2018-07-05T13:11:33.265Z,30.97
2018-07-05T13:16:53.771Z,31.14
2018-07-05T13:22:14.152Z,31.06
2018-07-05T13:27:34.381Z,31.14
2018-07-05T13:32:54.608Z,31.32
2018-07-05T13:38:14.881Z,31.26
2018-07-05T13:43:35.109Z,31.43
2018-07-05T13:48:55.541Z,31.19
2018-07-05T13:54:15.987Z,31.61
2018-07-05T13:59:36.218Z,31.69
2018-07-05T14:04:56.568Z,31.09
2018-07-05T14:10:16.742Z,31.48
2018-07-05T14:15:36.992Z,31.56
2018-07-05T14:20:57.224Z,31.76
2018-07-05T14:26:17.187Z,31.45
2018-07-05T14:31:37.691Z,31.88
2018-07-05T14:36:57.804Z,32.32
2018-07-05T14:42:18.048Z,32.17
2018-07-05T14:47:38.244Z,31.94
2018-07-05T14:52:58.375Z,32.09
2018-07-05T14:58:19.841Z,31.99
2018-07-05T15:03:42.049Z,31.77
2018-07-05T15:09:02.456Z,31.95
2018-07-05T15:14:22.706Z,32.40
2018-07-05T15:19:42.993Z,32.24
2018-07-05T15:25:03.307Z,32.15
2018-07-05T15:30:23.664Z,31.67
2018-07-05T15:35:43.809Z,31.58
2018-07-05T15:41:04.233Z,31.51
2018-07-05T15:46:24.537Z,31.88
2018-07-05T15:51:45.055Z,32.11
2018-07-05T15:57:05.982Z,32.07
2018-07-05T16:02:26.845Z,31.76
2018-07-05T16:07:47.154Z,31.77
2018-07-05T16:13:07.446Z,31.28
2018-07-05T16:18:27.865Z,30.73
2018-07-05T16:23:48.073Z,30.33
2018-07-05T16:29:08.347Z,30.00
2018-07-05T16:34:28.792Z,29.92
2018-07-05T16:39:48.705Z,29.52
2018-07-05T16:45:08.947Z,29.74
2018-07-05T16:50:29.181Z,29.39
2018-07-05T16:55:49.413Z,29.61
2018-07-05T17:01:09.654Z,30.00
2018-07-05T17:06:29.829Z,29.71
2018-07-05T17:11:50.179Z,29.46
2018-07-05T17:17:10.330Z,29.12
2018-07-05T17:22:30.543Z,28.54
2018-07-05T17:27:50.827Z,28.51
2018-07-05T17:33:10.991Z,28.49
2018-07-05T17:38:31.480Z,28.39
2018-07-05T17:43:51.776Z,27.67
2018-07-05T17:49:11.902Z,27.46
2018-07-05T17:54:32.425Z,27.38
2018-07-05T17:59:52.616Z,27.25
2018-07-05T18:05:12.960Z,26.99
2018-07-05T18:10:33.158Z,26.69
2018-07-05T18:15:53.414Z,26.58
2018-07-05T18:21:13.740Z,26.34
2018-07-05T18:26:33.997Z,25.99
2018-07-05T18:31:54.403Z,25.76
2018-07-05T18:37:14.852Z,25.83
2018-07-05T18:42:35.514Z,25.76
2018-07-05T18:47:55.748Z,25.51
2018-07-05T18:53:16.001Z,25.26
2018-07-05T18:58:36.929Z,25.14
2018-07-05T19:03:57.667Z,25.06
2018-07-05T19:09:18.017Z,25.01
2018-07-05T19:14:38.494Z,24.86
2018-07-05T19:19:58.917Z,24.84
2018-07-05T19:25:19.249Z,24.75
2018-07-05T19:30:39.483Z,24.68
2018-07-05T19:35:59.822Z,24.49
2018-07-05T19:41:20.840Z,24.40
2018-07-05T19:46:41.125Z,24.39
2018-07-05T19:52:01.590Z,24.30
2018-07-05T19:57:21.808Z,24.16
2018-07-05T20:02:42.092Z,24.08
2018-07-05T20:08:02.773Z,23.96
2018-07-05T20:13:23.129Z,23.79
2018-07-05T20:18:43.533Z,23.63
2018-07-05T20:24:03.742Z,23.37
2018-07-05T20:29:23.794Z,23.25
2018-07-05T20:34:48.154Z,23.10
2018-07-05T20:40:08.365Z,23.05
2018-07-05T20:45:29.141Z,23.04
2018-07-05T20:50:49.382Z,22.91
2018-07-05T20:56:09.789Z,22.80
2018-07-05T21:01:30.030Z,22.52
2018-07-05T21:06:50.273Z,22.40
2018-07-05T21:12:10.332Z,22.42
2018-07-05T21:17:24.808Z,22.32
2018-07-05T21:22:45.183Z,22.11
2018-07-05T21:28:05.325Z,22.03
2018-07-05T21:33:25.293Z,21.85
2018-07-05T21:38:45.688Z,21.83
2018-07-05T21:44:05.800Z,21.68
2018-07-05T21:49:26.736Z,21.58
2018-07-05T21:54:46.920Z,21.41
2018-07-05T22:00:07.199Z,21.28
2018-07-05T22:05:27.485Z,21.12
2018-07-05T22:10:47.702Z,21.04
2018-07-05T22:16:08.014Z,20.89
2018-07-05T22:21:28.293Z,20.74
2018-07-05T22:26:48.564Z,20.72
2018-07-05T22:32:08.853Z,20.71
2018-07-05T22:37:29.165Z,20.71
2018-07-05T22:42:49.518Z,20.70
2018-07-05T22:48:09.694Z,20.76
2018-07-05T22:53:29.896Z,20.68
2018-07-05T22:58:50.131Z,20.55
2018-07-05T23:04:10.554Z,20.49
2018-07-05T23:09:30.804Z,20.33
2018-07-05T23:14:50.933Z,20.21
2018-07-05T23:20:11.053Z,20.30
2018-07-05T23:25:31.417Z,20.34
2018-07-05T23:30:51.500Z,20.35
2018-07-05T23:36:11.645Z,20.23
2018-07-05T23:41:31.849Z,19.99
2018-07-05T23:46:52.265Z,19.89
2018-07-05T23:52:12.554Z,19.83
2018-07-05T23:57:32.928Z,19.82
